createdAt,value
2018-12-23T00:32:43.993Z,18.3
2018-12-23T00:33:34.664Z,18.3
2018-12-23T00:34:39.184Z,18.2
2018-12-23T00:36:12.073Z,18.2
2018-12-23T00:37:07.148Z,18.2
2018-12-23T00:37:44.043Z,18.2
2018-12-23T00:38:32.918Z,18.2
2018-12-23T05:02:01.832Z,18.4
2018-12-23T05:02:51.422Z,18.3
2018-12-23T05:03:46.587Z,18.4
2018-12-23T05:04:31.787Z,18.3
2018-12-23T05:05:21.514Z,18.4
2018-12-23T05:06:11.897Z,18.4
2018-12-23T05:07:01.086Z,18.4
2018-12-23T05:07:51.111Z,18.4
2018-12-23T05:08:41.747Z,18.4
2018-12-23T05:09:31.939Z,18.4
2018-12-23T05:10:22.119Z,18.4
2018-12-23T05:11:11.585Z,18.4
2018-12-23T05:12:01.704Z,18.4
2018-12-23T05:12:52.298Z,18.4
2018-12-23T05:13:41.537Z,18.4
2018-12-23T05:14:32.123Z,18.4
2018-12-23T05:15:21.994Z,18.4
2018-12-23T05:16:12.003Z,18.3
2018-12-23T05:17:02.041Z,18.4
2018-12-23T05:17:52.603Z,18.4
2018-12-23T05:18:42.727Z,18.4
2018-12-23T05:19:32.589Z,18.4
2018-12-23T05:20:22.801Z,18.4
2018-12-23T05:21:12.861Z,18.4
2018-12-23T05:22:03.276Z,18.4
2018-12-23T05:22:53.256Z,18.4
2018-12-23T05:23:42.500Z,18.4
2018-12-23T05:24:32.252Z,18.4
2018-12-23T05:25:22.028Z,18.4
2018-12-23T05:26:13.291Z,18.4
2018-12-23T05:27:02.695Z,18.4
2018-12-23T05:27:53.033Z,18.4
2018-12-23T05:28:43.086Z,18.4
2018-12-23T05:29:33.168Z,18.4
2018-12-23T05:30:23.203Z,18.4
2018-12-23T05:31:12.990Z,18.4
2018-12-23T05:32:03.038Z,18.4
2018-12-23T05:32:53.682Z,18.4
2018-12-23T05:33:43.707Z,18.4
2018-12-23T05:34:32.951Z,18.4
2018-12-23T05:35:23.273Z,18.4
2018-12-23T05:36:13.320Z,18.4
2018-12-23T05:37:03.362Z,18.4
2018-12-23T05:37:54.248Z,18.4
2018-12-23T05:38:43.770Z,18.4
2018-12-23T05:39:33.842Z,18.4
2018-12-23T05:40:23.921Z,18.4
2018-12-23T05:41:14.225Z,18.4
2018-12-23T05:42:03.474Z,18.4
2018-12-23T05:42:54.630Z,18.4
2018-12-23T05:43:44.414Z,18.4
2018-12-23T05:44:33.934Z,18.4
2018-12-23T05:45:24.244Z,18.4
2018-12-23T05:46:14.644Z,18.5
2018-12-23T05:47:04.594Z,18.4
2018-12-23T05:47:55.194Z,18.4
2018-12-23T05:48:44.696Z,18.4
2018-12-23T05:49:34.054Z,18.5
2018-12-23T05:50:24.560Z,18.4
2018-12-23T05:51:14.331Z,18.5
2018-12-23T05:52:04.731Z,18.5
2018-12-23T05:52:55.020Z,18.4
2018-12-23T05:53:44.791Z,18.5
2018-12-23T05:54:34.843Z,18.5
2018-12-23T05:55:24.920Z,18.5
2018-12-23T05:56:14.676Z,18.5
2018-12-23T05:57:05.293Z,18.6
2018-12-23T05:57:55.550Z,18.6
2018-12-23T05:59:34.921Z,18.8
2018-12-23T06:00:25.253Z,18.8
2018-12-23T06:01:15.313Z,18.8
2018-12-23T06:02:05.625Z,18.8
2018-12-23T06:02:55.410Z,18.9
2018-12-23T06:03:45.803Z,18.9
2018-12-23T06:04:35.541Z,18.9
2018-12-23T06:05:25.568Z,18.9
2018-12-23T06:06:15.370Z,19
2018-12-23T06:07:05.971Z,19.1
2018-12-23T06:07:55.755Z,19.1
2018-12-23T06:08:46.063Z,19.1
2018-12-23T06:09:36.150Z,19.1
2018-12-23T06:10:25.752Z,19.1
2018-12-23T06:11:16.255Z,19.1
2018-12-23T06:12:06.035Z,19.1
2018-12-23T06:12:55.780Z,19
2018-12-23T06:13:46.397Z,19
2018-12-23T06:14:36.217Z,19
2018-12-23T06:15:26.260Z,19
2018-12-23T06:16:16.305Z,18.9
2018-12-23T06:17:06.644Z,18.9
2018-12-23T06:17:56.797Z,18.9
2018-12-23T06:18:46.884Z,18.9
2018-12-23T06:19:36.544Z,18.9
2018-12-23T06:20:26.605Z,18.9
2018-12-23T06:21:16.650Z,18.9
2018-12-23T06:22:06.437Z,18.9
2018-12-23T06:22:56.482Z,18.9
2018-12-23T06:23:46.857Z,18.9
2018-12-23T06:24:37.169Z,18.9
2018-12-23T06:25:27.327Z,18.9
2018-12-23T06:26:17.007Z,18.9
2018-12-23T06:27:07.316Z,18.9
2018-12-23T06:27:57.105Z,18.9
2018-12-23T06:28:49.309Z,18.9
2018-12-23T06:29:37.230Z,18.9
2018-12-23T06:30:27.566Z,18.9
2018-12-23T06:31:17.344Z,18.9
2018-12-23T06:32:07.663Z,18.9
2018-12-23T06:32:57.288Z,18.9
2018-12-23T06:33:47.241Z,18.9
2018-12-23T06:34:37.578Z,18.9
2018-12-23T06:35:27.908Z,18.8
2018-12-23T06:36:17.681Z,18.9
2018-12-23T06:37:13.422Z,18.9
2018-12-23T06:37:58.064Z,18.8
2018-12-23T06:38:48.132Z,18.8
2018-12-23T06:39:38.195Z,18.8
2018-12-23T06:40:28.259Z,18.9
2018-12-23T06:41:18.285Z,18.8
2018-12-23T06:42:08.072Z,18.8
2018-12-23T06:42:58.132Z,18.8
2018-12-23T06:43:48.319Z,18.8
2018-12-23T06:44:38.288Z,18.8
2018-12-23T06:45:28.307Z,18.8
2018-12-23T06:46:18.725Z,18.8
2018-12-23T06:47:08.402Z,18.8
2018-12-23T06:47:58.547Z,18.8
2018-12-23T06:48:48.802Z,18.8
2018-12-23T06:49:38.602Z,18.8
2018-12-23T06:50:29.172Z,18.8
2018-12-23T06:51:18.697Z,18.8
2018-12-23T06:52:08.758Z,18.8
2018-12-23T06:52:59.080Z,18.8
2018-12-23T06:53:48.864Z,18.8
2018-12-23T06:54:39.499Z,18.8
2018-12-23T06:55:28.699Z,18.8
2018-12-23T06:56:19.039Z,18.8
2018-12-23T06:57:09.451Z,18.8
2018-12-23T06:57:59.156Z,18.8
2018-12-23T06:58:49.459Z,18.8
2018-12-23T06:59:39.256Z,18.8
2018-12-23T07:00:29.300Z,18.8
2018-12-23T07:01:19.369Z,18.8
2018-12-23T07:02:09.284Z,18.8
2018-12-23T07:02:59.781Z,18.8
2018-12-23T07:03:49.543Z,18.8
2018-12-23T07:04:39.607Z,18.8
2018-12-23T07:05:29.966Z,18.8
2018-12-23T07:06:19.998Z,18.8
2018-12-23T07:07:18.376Z,18.8
2018-12-23T07:08:00.107Z,18.8
2018-12-23T07:08:50.148Z,18.8
2018-12-23T07:09:39.941Z,18.8
2018-12-23T07:10:30.008Z,18.8
2018-12-23T07:11:20.441Z,18.8
2018-12-23T07:12:10.396Z,18.8
2018-12-23T07:13:00.208Z,18.8
2018-12-23T07:13:50.220Z,18.8
2018-12-23T07:14:40.260Z,18.8
2018-12-23T07:15:30.671Z,18.8
2018-12-23T07:16:20.390Z,18.8
2018-12-23T07:17:10.723Z,18.8
2018-12-23T07:18:00.513Z,18.8
2018-12-23T07:18:50.576Z,18.8
2018-12-23T07:19:40.900Z,18.8
2018-12-23T07:21:21.015Z,18.8
2018-12-23T07:22:10.530Z,18.8
2018-12-23T07:23:01.125Z,18.8
2018-12-23T07:23:51.180Z,18.8
2018-12-23T07:24:40.945Z,18.8
2018-12-23T07:25:31.018Z,18.8
2018-12-23T07:26:21.417Z,18.8
2018-12-23T07:27:10.947Z,18.8
2018-12-23T07:28:01.261Z,18.8
2018-12-23T07:28:51.243Z,18.8
2018-12-23T07:29:41.283Z,18.8
2018-12-23T07:30:31.635Z,18.8
2018-12-23T07:31:21.692Z,18.8
2018-12-23T07:33:01.523Z,18.8
2018-12-23T07:34:41.099Z,18.8
2018-12-23T07:35:31.939Z,18.8
2018-12-23T07:36:21.477Z,18.8
2018-12-23T07:37:11.806Z,18.8
2018-12-23T07:38:02.170Z,18.8
2018-12-23T07:38:51.923Z,18.8
2018-12-23T07:39:42.259Z,18.8
2018-12-23T07:40:31.504Z,18.8
2018-12-23T07:41:22.619Z,18.8
2018-12-23T07:42:11.863Z,18.8
2018-12-23T07:43:02.477Z,18.8
2018-12-23T07:43:52.536Z,18.8
2018-12-23T07:44:42.616Z,18.8
2018-12-23T07:45:32.382Z,18.8
2018-12-23T07:46:22.969Z,18.8
2018-12-23T07:47:12.493Z,18.8
2018-12-23T07:48:02.838Z,18.8
2018-12-23T07:48:52.876Z,18.8
2018-12-23T07:49:42.933Z,18.8
2018-12-23T07:50:32.816Z,18.8
2018-12-23T07:51:22.741Z,18.8
2018-12-23T07:52:13.121Z,18.8
2018-12-23T07:53:02.611Z,18.8
2018-12-23T07:53:52.948Z,18.8
2018-12-23T07:54:43.001Z,18.8
2018-12-23T07:55:32.786Z,18.8
2018-12-23T07:56:22.371Z,18.8
2018-12-23T07:57:13.157Z,18.8
2018-12-23T07:58:03.228Z,18.8
2018-12-23T07:58:52.720Z,18.8
2018-12-23T07:59:43.340Z,18.8
2018-12-23T08:00:33.395Z,18.8
2018-12-23T08:01:23.543Z,18.8
2018-12-23T08:02:13.550Z,18.8
2018-12-23T08:03:03.842Z,18.8
2018-12-23T08:03:53.897Z,18.8
2018-12-23T08:04:43.947Z,18.8
2018-12-23T08:05:34.012Z,18.8
2018-12-23T08:06:24.326Z,18.8
2018-12-23T08:08:03.922Z,18.8
2018-12-23T08:08:53.950Z,18.8
2018-12-23T08:09:43.467Z,18.8
2018-12-23T08:13:54.314Z,18.8
2018-12-23T08:17:14.535Z,18.8
2018-12-23T08:23:55.261Z,18.6
2018-12-23T08:40:36.392Z,18.6
2018-12-23T08:41:26.450Z,18.6
2018-12-23T08:42:16.235Z,18.6
2018-12-23T08:43:56.307Z,18.6
2018-12-23T08:45:36.175Z,18.6
2018-12-23T08:46:26.769Z,18.6
2018-12-23T08:47:16.282Z,18.6
2018-12-23T08:48:06.737Z,18.6
2018-12-23T08:48:56.734Z,18.6
2018-12-23T08:49:46.745Z,18.6
2018-12-23T08:50:36.782Z,18.6
2018-12-23T08:51:27.119Z,15.9
2018-12-23T08:52:17.213Z,34.2
2018-12-23T08:53:07.481Z,55.1
2018-12-23T08:53:56.750Z,60.4
2018-12-23T08:54:47.082Z,60.8
2018-12-23T08:55:37.399Z,59.7
2018-12-23T08:56:27.195Z,56.9
2018-12-23T08:57:17.307Z,55.2
2018-12-23T08:58:07.339Z,54.1
2018-12-23T08:58:57.362Z,53.1
2018-12-23T08:59:47.767Z,52.3
2018-12-23T09:00:37.476Z,51.4
2018-12-23T09:16:26.913Z,39.6
2018-12-23T09:17:16.725Z,39.1
2018-12-23T09:18:06.765Z,38.6
2018-12-23T09:18:56.547Z,38.1
2018-12-23T09:19:46.892Z,37.8
2018-12-23T09:20:36.935Z,37.4
2018-12-23T09:21:27.002Z,37
2018-12-23T09:22:16.801Z,36.6
2018-12-23T09:23:06.557Z,36.3
2018-12-23T09:23:57.373Z,37.1
2018-12-23T09:24:47.472Z,42.2
2018-12-23T09:25:37.008Z,53.6
2018-12-23T09:26:27.340Z,64.1
2018-12-23T09:27:17.388Z,63.7
2018-12-23T09:28:09.478Z,62.3
2018-12-23T09:28:57.243Z,61
2018-12-23T09:29:47.574Z,59.3
2018-12-23T09:30:37.084Z,57.9
2018-12-23T09:31:27.654Z,56.8
2018-12-23T09:32:17.744Z,55.7
2018-12-23T09:33:07.794Z,54.8
2018-12-23T09:33:57.944Z,53.8
2018-12-23T09:34:47.925Z,53
2018-12-23T09:35:37.694Z,52.1
2018-12-23T09:36:27.784Z,51.4
2018-12-23T09:37:17.821Z,50.6
2018-12-23T09:38:07.881Z,49.8
2018-12-23T09:38:57.926Z,49.1
2018-12-23T09:39:47.999Z,48.4
2018-12-23T09:40:38.126Z,47.7
2018-12-23T09:41:28.839Z,47.1
2018-12-23T09:42:18.681Z,46.4
2018-12-23T09:43:08.229Z,45.8
2018-12-23T09:43:58.561Z,45.1
2018-12-23T09:44:49.099Z,44.6
2018-12-23T09:45:38.471Z,44
2018-12-23T09:46:29.216Z,43.4
2018-12-23T09:47:19.243Z,42.9
2018-12-23T09:48:08.766Z,42.4
2018-12-23T09:48:59.388Z,41.9
2018-12-23T09:49:49.177Z,41.4
2018-12-23T09:50:38.940Z,40.9
2018-12-23T09:51:29.295Z,40.4
2018-12-23T09:52:19.415Z,40.1
2018-12-23T09:53:09.508Z,39.6
2018-12-23T09:53:59.240Z,39.2
2018-12-23T09:54:49.812Z,38.8
2018-12-23T09:55:39.833Z,38.3
2018-12-23T09:56:30.382Z,37.9
2018-12-23T09:57:19.770Z,37.6
2018-12-23T09:58:10.051Z,37.3
2018-12-23T09:58:59.768Z,36.9
2018-12-23T09:59:49.581Z,40.9
2018-12-23T10:00:39.650Z,45.3
2018-12-23T10:01:30.100Z,59.6
2018-12-23T10:02:20.035Z,65.2
2018-12-23T10:03:10.145Z,64
2018-12-23T10:03:59.647Z,62.2
2018-12-23T10:04:50.287Z,60.9
2018-12-23T10:05:40.360Z,59.8
2018-12-23T10:06:30.325Z,58.8
2018-12-23T10:07:20.392Z,57.8
2018-12-23T10:08:13.790Z,56.9
2018-12-23T10:09:00.208Z,55.9
2018-12-23T10:09:50.545Z,55.1
2018-12-23T10:10:40.609Z,54.2
2018-12-23T10:11:30.783Z,53.4
2018-12-23T10:12:20.719Z,52.5
2018-12-23T10:13:10.641Z,51.7
2018-12-23T10:14:01.106Z,50.9
2018-12-23T10:14:50.624Z,50.2
2018-12-23T10:15:40.969Z,49.5
2018-12-23T10:16:31.302Z,48.8
2018-12-23T10:17:21.129Z,48.1
2018-12-23T10:18:11.407Z,47.4
2018-12-23T10:19:00.441Z,46.8
2018-12-23T10:19:51.529Z,46.1
2018-12-23T10:20:41.301Z,45.5
2018-12-23T10:21:31.085Z,44.9
2018-12-23T10:22:21.389Z,44.4
2018-12-23T10:23:11.539Z,43.8
2018-12-23T10:24:01.817Z,43.3
2018-12-23T10:24:51.874Z,42.8
2018-12-23T10:25:41.463Z,42.3
2018-12-23T10:26:31.443Z,41.8
2018-12-23T10:27:21.019Z,41.3
2018-12-23T10:28:11.879Z,40.9
2018-12-23T10:29:01.782Z,40.4
2018-12-23T10:29:51.194Z,39.9
2018-12-23T10:30:41.243Z,39.5
2018-12-23T10:31:31.318Z,39.1
2018-12-23T10:32:21.380Z,38.7
2018-12-23T10:33:11.978Z,38.3
2018-12-23T10:34:01.756Z,37.9
2018-12-23T10:34:51.821Z,37.6
2018-12-23T10:35:42.168Z,37.2
2018-12-23T10:36:31.654Z,36.8
2018-12-23T10:37:22.371Z,36.5
2018-12-23T10:38:20.688Z,36.1
2018-12-23T10:39:02.181Z,35.8
2018-12-23T10:39:52.453Z,35.6
2018-12-23T10:40:42.298Z,35.3
2018-12-23T10:41:32.268Z,34.9
2018-12-23T10:42:22.706Z,34.6
2018-12-23T10:43:12.413Z,34.4
2018-12-23T10:44:02.178Z,34.1
2018-12-23T10:44:52.797Z,33.8
2018-12-23T10:45:42.577Z,33.5
2018-12-23T10:46:32.909Z,33.3
2018-12-23T10:47:22.676Z,33.1
2018-12-23T10:48:12.942Z,32.8
2018-12-23T10:49:02.906Z,32.6
2018-12-23T10:49:53.700Z,32.4
2018-12-23T10:50:43.242Z,32.1
2018-12-23T10:51:32.907Z,31.9
2018-12-23T10:52:22.773Z,31.7
2018-12-23T10:53:13.850Z,31.5
2018-12-23T10:54:02.883Z,31.3
2018-12-23T10:54:53.422Z,31.1
2018-12-23T10:55:43.862Z,30.9
2018-12-23T10:56:33.848Z,30.6
2018-12-23T10:57:23.905Z,30.5
2018-12-23T10:58:14.202Z,30.3
2018-12-23T10:59:03.993Z,30.1
2018-12-23T10:59:53.100Z,29.9
2018-12-23T11:00:44.099Z,29.8
2018-12-23T11:01:34.549Z,29.6
2018-12-23T11:02:24.215Z,29.4
2018-12-23T11:03:14.277Z,29.3
2018-12-23T11:04:04.677Z,29.1
2018-12-23T11:04:54.397Z,28.9
2018-12-23T11:05:44.709Z,28.8
2018-12-23T11:06:34.787Z,28.7
2018-12-23T11:07:24.562Z,28.5
2018-12-23T11:08:14.634Z,28.4
2018-12-23T11:09:04.416Z,28.2
2018-12-23T11:10:03.660Z,28.1
2018-12-23T11:10:44.801Z,31.4
2018-12-23T11:11:35.139Z,34.1
2018-12-23T11:12:25.186Z,52.5
2018-12-23T11:13:14.694Z,62.8
2018-12-23T11:14:04.786Z,63.8
2018-12-23T11:14:55.379Z,62.6
2018-12-23T11:15:45.749Z,61.4
2018-12-23T11:16:35.001Z,60.4
2018-12-23T11:17:25.288Z,59.5
2018-12-23T11:18:15.328Z,58.5
2018-12-23T11:19:05.095Z,57.6
2018-12-23T11:19:55.703Z,56.6
2018-12-23T11:20:45.233Z,55.7
2018-12-23T11:21:37.796Z,54.8
2018-12-23T11:22:24.905Z,53.9
2018-12-23T11:23:15.940Z,53.1
2018-12-23T11:24:05.978Z,52.3
2018-12-23T11:24:55.797Z,51.4
2018-12-23T11:25:46.185Z,50.7
2018-12-23T11:26:35.915Z,49.9
2018-12-23T11:27:25.755Z,49.2
2018-12-23T11:28:16.297Z,48.5
2018-12-23T11:29:06.072Z,47.8
2018-12-23T11:29:56.185Z,47.2
2018-12-23T11:30:45.996Z,46.5
2018-12-23T11:31:36.264Z,45.9
2018-12-23T11:32:26.584Z,45.3
2018-12-23T11:33:16.959Z,44.8
2018-12-23T11:34:06.757Z,44.2
2018-12-23T11:34:56.773Z,43.6
2018-12-23T11:35:46.554Z,43.1
2018-12-23T11:36:36.574Z,42.6
2018-12-23T11:37:26.387Z,42.1
2018-12-23T11:38:18.972Z,45.8
2018-12-23T11:39:06.566Z,51.2
2018-12-23T11:39:57.121Z,63.3
2018-12-23T11:40:46.891Z,66.1
2018-12-23T11:41:37.094Z,65.2
2018-12-23T11:42:26.845Z,62.4
2018-12-23T11:43:17.059Z,60.9
2018-12-23T11:44:06.663Z,59.9
2018-12-23T11:44:57.183Z,59.1
2018-12-23T11:45:46.691Z,58.2
2018-12-23T11:46:37.298Z,57.3
2018-12-23T11:47:27.128Z,56.3
2018-12-23T11:48:17.693Z,55.4
2018-12-23T11:49:07.756Z,54.5
2018-12-23T11:49:57.536Z,53.7
2018-12-23T11:50:47.312Z,52.8
2018-12-23T11:51:37.664Z,52.1
2018-12-23T11:52:27.709Z,51.3
2018-12-23T11:53:17.763Z,50.6
2018-12-23T11:54:07.326Z,49.9
2018-12-23T11:54:58.267Z,49.2
2018-12-23T11:55:48.220Z,48.4
2018-12-23T11:56:38.016Z,47.8
2018-12-23T11:57:27.790Z,47.2
2018-12-23T11:58:18.399Z,46.6
2018-12-23T11:59:08.232Z,45.9
2018-12-23T11:59:58.235Z,45.4
2018-12-23T12:00:48.562Z,44.8
2018-12-23T12:01:38.650Z,44.3
2018-12-23T12:02:28.415Z,43.8
2018-12-23T12:03:18.474Z,43.3
2018-12-23T12:04:08.811Z,42.8
2018-12-23T12:04:58.032Z,42.3
2018-12-23T12:05:48.928Z,41.8
2018-12-23T12:06:38.718Z,41.4
2018-12-23T12:07:28.760Z,40.9
2018-12-23T12:08:19.112Z,40.4
2018-12-23T12:09:10.120Z,40.1
2018-12-23T12:09:59.309Z,39.6
2018-12-23T12:10:49.239Z,39.3
2018-12-23T12:11:38.790Z,38.9
2018-12-23T12:12:29.398Z,38.5
2018-12-23T12:13:19.554Z,38.1
2018-12-23T12:14:08.767Z,37.8
2018-12-23T12:14:58.746Z,38.7
2018-12-23T12:15:49.587Z,41.9
2018-12-23T12:16:39.671Z,51.2
2018-12-23T12:17:29.777Z,59.6
2018-12-23T12:18:19.248Z,60.8
2018-12-23T12:19:09.861Z,60.3
2018-12-23T12:19:59.912Z,59.4
2018-12-23T12:20:50.004Z,58.3
2018-12-23T12:21:40.034Z,56.8
2018-12-23T12:22:30.089Z,55.6
2018-12-23T12:23:20.154Z,54.8
2018-12-23T12:24:09.931Z,53.8
2018-12-23T12:24:59.456Z,53.1
2018-12-23T12:25:50.049Z,52.3
2018-12-23T12:26:39.831Z,51.5
2018-12-23T12:27:30.176Z,50.8
2018-12-23T12:28:20.483Z,50
2018-12-23T12:29:11.957Z,49.3
2018-12-23T12:30:00.869Z,48.6
2018-12-23T12:30:50.381Z,47.9
2018-12-23T12:31:39.903Z,47.4
2018-12-23T12:32:30.509Z,46.8
2018-12-23T12:33:20.584Z,46.1
2018-12-23T12:34:10.623Z,45.6
2018-12-23T12:35:02.103Z,44.9
2018-12-23T12:35:51.284Z,44.4
2018-12-23T12:36:40.295Z,43.9
2018-12-23T12:37:30.580Z,43.3
2018-12-23T12:38:20.644Z,42.9
2018-12-23T12:39:10.693Z,42.4
2018-12-23T12:40:00.840Z,41.9
2018-12-23T12:40:53.643Z,41.4
2018-12-23T12:41:41.160Z,40.9
2018-12-23T12:42:31.273Z,40.6
2018-12-23T12:43:20.963Z,40.1
2018-12-23T12:44:11.050Z,39.8
2018-12-23T12:45:01.534Z,39.3
2018-12-23T12:45:51.710Z,38.9
2018-12-23T12:46:41.491Z,38.5
2018-12-23T12:47:31.593Z,38.2
2018-12-23T12:48:21.888Z,37.8
2018-12-23T12:49:11.943Z,37.5
2018-12-23T12:50:01.838Z,37.1
2018-12-23T12:50:52.062Z,36.8
2018-12-23T12:51:42.078Z,36.5
2018-12-23T12:52:32.295Z,36.2
2018-12-23T12:53:22.257Z,35.9
2018-12-23T12:54:12.020Z,35.6
2018-12-23T12:55:02.440Z,35.3
2018-12-23T12:55:52.155Z,35
2018-12-23T12:56:42.230Z,34.8
2018-12-23T12:57:32.531Z,34.5
2018-12-23T12:58:22.743Z,34.2
2018-12-23T12:59:12.638Z,34
2018-12-23T13:00:02.981Z,33.8
2018-12-23T13:00:52.542Z,33.4
2018-12-23T13:01:42.938Z,33.3
2018-12-23T13:02:32.322Z,33
2018-12-23T13:03:22.396Z,32.8
2018-12-23T13:04:12.450Z,32.6
2018-12-23T13:05:03.055Z,32.4
2018-12-23T13:05:52.837Z,32.2
2018-12-23T13:06:43.234Z,32
2018-12-23T13:07:33.224Z,31.8
2018-12-23T13:08:22.732Z,31.6
2018-12-23T13:09:13.335Z,31.4
2018-12-23T13:10:03.634Z,31.2
2018-12-23T13:10:53.515Z,31
2018-12-23T13:11:42.957Z,30.8
2018-12-23T13:12:33.584Z,30.7
2018-12-23T13:13:23.382Z,30.4
2018-12-23T13:14:13.422Z,30.3
2018-12-23T13:15:03.782Z,30.2
2018-12-23T13:15:53.846Z,29.9
2018-12-23T13:16:43.576Z,29.8
2018-12-23T13:17:33.659Z,29.7
2018-12-23T13:18:23.994Z,29.6
2018-12-23T13:19:13.764Z,29.3
2018-12-23T13:20:03.568Z,29.3
2018-12-23T13:20:54.486Z,29.1
2018-12-23T13:21:43.661Z,28.9
2018-12-23T13:22:34.330Z,28.8
2018-12-23T13:23:24.639Z,28.6
2018-12-23T13:24:13.627Z,28.5
2018-12-23T13:25:04.272Z,28.4
2018-12-23T13:25:54.508Z,28.3
2018-12-23T13:26:44.002Z,28.1
2018-12-23T13:27:34.586Z,28
2018-12-23T13:28:23.718Z,27.9
2018-12-23T13:29:13.971Z,27.8
2018-12-23T13:30:04.333Z,27.6
2018-12-23T13:30:54.313Z,27.5
2018-12-23T13:31:45.207Z,27.4
2018-12-23T13:32:34.224Z,27.3
2018-12-23T13:33:24.595Z,27.2
2018-12-23T13:34:14.609Z,27.1
2018-12-23T13:35:04.498Z,26.9
2018-12-23T13:35:54.453Z,26.9
2018-12-23T13:36:44.837Z,26.8
2018-12-23T13:37:34.823Z,26.6
2018-12-23T13:38:25.128Z,26.6
2018-12-23T13:39:14.682Z,26.5
2018-12-23T13:40:04.733Z,26.4
2018-12-23T13:40:54.805Z,26.3
2018-12-23T13:41:47.650Z,26.2
2018-12-23T13:42:34.910Z,26.1
2018-12-23T13:43:24.962Z,26
2018-12-23T13:44:15.312Z,25.9
2018-12-23T13:45:05.360Z,25.8
2018-12-23T13:45:55.131Z,25.8
2018-12-23T13:46:45.242Z,25.7
2018-12-23T13:47:35.250Z,25.6
2018-12-23T13:48:25.299Z,25.5
2018-12-23T13:49:14.906Z,25.4
2018-12-23T13:50:05.164Z,25.3
2018-12-23T13:50:55.477Z,25.3
2018-12-23T13:51:45.812Z,25.2
2018-12-23T13:52:35.426Z,25.1
2018-12-23T13:53:25.766Z,25.1
2018-12-23T13:54:18.061Z,25
2018-12-23T13:55:05.572Z,24.9
2018-12-23T13:55:56.114Z,24.8
2018-12-23T13:56:45.869Z,24.8
2018-12-23T13:57:36.215Z,24.7
2018-12-23T13:58:26.269Z,24.6
2018-12-23T14:15:21.776Z,23.4
2018-12-23T14:16:11.996Z,23.4
2018-12-23T14:17:02.202Z,23.4
2018-12-23T14:17:51.404Z,23.3
2018-12-23T14:18:56.302Z,23.3
2018-12-23T14:19:31.730Z,23.2
2018-12-23T14:20:22.027Z,23.2
2018-12-23T14:21:11.840Z,23.1
2018-12-23T14:22:01.887Z,23.1
2018-12-23T14:22:52.499Z,23.1
2018-12-23T14:23:41.989Z,23
2018-12-23T14:24:46.434Z,22.9
2018-12-23T14:25:22.386Z,22.9
2018-12-23T14:26:12.162Z,22.9
2018-12-23T14:27:02.499Z,22.8
2018-12-23T14:27:51.987Z,22.8
2018-12-23T14:28:42.619Z,22.8
2018-12-23T14:29:33.007Z,22.8
2018-12-23T14:30:22.474Z,22.7
2018-12-23T14:31:12.511Z,22.6
2018-12-23T14:32:02.843Z,22.6
2018-12-23T14:32:52.629Z,22.6
2018-12-23T14:33:43.161Z,22.5
2018-12-23T14:34:33.021Z,22.5
2018-12-23T14:35:22.512Z,22.5
2018-12-23T14:36:13.096Z,22.4
2018-12-23T14:37:03.101Z,22.4
2018-12-23T14:37:53.237Z,22.4
2018-12-23T14:38:43.019Z,22.3
2018-12-23T14:40:05.183Z,22.3
2018-12-23T14:40:22.855Z,22.2
2018-12-23T14:41:12.346Z,22.2
2018-12-23T14:42:03.041Z,22.2
2018-12-23T14:42:52.983Z,22.2
2018-12-23T14:43:43.645Z,22.1
2018-12-23T14:44:33.133Z,22.1
2018-12-23T14:45:23.473Z,22.1
2018-12-23T14:46:13.621Z,22
2018-12-23T14:47:18.233Z,22
2018-12-23T14:47:53.910Z,21.9
2018-12-23T14:48:43.965Z,21.9
2018-12-23T14:49:33.973Z,21.9
2018-12-23T14:50:24.170Z,21.9
2018-12-23T14:51:13.905Z,21.9
2018-12-23T14:52:18.865Z,21.9
2018-12-23T14:52:53.695Z,21.8
2018-12-23T14:53:44.300Z,21.8
2018-12-23T14:54:33.810Z,21.7
2018-12-23T14:55:24.415Z,21.8
2018-12-23T14:56:14.513Z,21.7
2018-12-23T14:57:04.273Z,21.6
2018-12-23T14:57:54.068Z,21.6
2018-12-23T14:58:44.648Z,21.6
2018-12-23T14:59:33.590Z,21.6
2018-12-23T15:00:24.982Z,21.6
2018-12-23T15:01:14.828Z,21.5
2018-12-23T15:02:05.058Z,21.5
2018-12-23T15:02:54.650Z,21.5
2018-12-23T15:03:44.157Z,21.4
2018-12-23T15:04:34.943Z,21.4
2018-12-23T15:05:24.652Z,21.4
2018-12-23T15:06:15.152Z,21.4
2018-12-23T15:07:05.850Z,21.4
2018-12-23T15:07:54.429Z,21.4
2018-12-23T15:08:45.155Z,21.3
2018-12-23T15:09:37.302Z,21.3
2018-12-23T15:10:24.877Z,21.3
2018-12-23T15:11:15.494Z,21.3
2018-12-23T15:12:05.600Z,21.3
2018-12-23T15:12:54.794Z,21.3
2018-12-23T15:13:46.122Z,21.2
2018-12-23T15:14:50.354Z,21.2
2018-12-23T15:15:25.504Z,21.2
2018-12-23T15:16:15.854Z,21.2
2018-12-23T15:18:45.732Z,21.1
2018-12-23T15:19:35.519Z,21.1
2018-12-23T15:20:25.849Z,21.1
2018-12-23T15:21:15.907Z,21
2018-12-23T15:22:06.267Z,21.1
2018-12-23T15:22:56.026Z,21
2018-12-23T15:23:46.576Z,20.9
2018-12-23T15:24:36.436Z,20.9
2018-12-23T15:25:26.197Z,20.9
2018-12-23T15:26:16.526Z,20.9
2018-12-23T15:27:06.278Z,20.9
2018-12-23T15:27:56.649Z,20.9
2018-12-23T15:28:46.449Z,20.9
2018-12-23T15:29:36.500Z,20.9
2018-12-23T15:30:26.540Z,20.9
2018-12-23T15:31:31.467Z,20.8
2018-12-23T15:32:06.738Z,20.8
2018-12-23T15:32:57.205Z,20.8
2018-12-23T15:33:47.267Z,20.8
2018-12-23T15:34:37.100Z,20.8
2018-12-23T15:35:26.876Z,20.8
2018-12-23T15:36:16.929Z,20.8
2018-12-23T15:37:07.252Z,20.8
2018-12-23T15:37:57.494Z,20.8
2018-12-23T15:38:47.104Z,20.7
2018-12-23T15:39:45.525Z,20.7
2018-12-23T15:40:27.049Z,20.7
2018-12-23T15:41:17.273Z,20.7
2018-12-23T15:42:07.601Z,20.7
2018-12-23T15:42:57.413Z,20.6
2018-12-23T15:43:48.157Z,20.7
2018-12-23T15:44:37.882Z,20.6
2018-12-23T15:45:28.136Z,20.6
2018-12-23T15:46:18.006Z,20.6
2018-12-23T15:47:07.383Z,20.6
2018-12-23T15:47:57.973Z,20.6
2018-12-23T15:48:48.058Z,20.6
2018-12-23T15:49:38.121Z,20.6
2018-12-23T15:50:28.608Z,20.5
2018-12-23T15:51:18.463Z,20.5
2018-12-23T15:52:08.291Z,20.5
2018-12-23T15:52:58.346Z,20.5
2018-12-23T15:53:48.424Z,20.5
2018-12-23T15:54:46.693Z,20.4
2018-12-23T15:55:28.263Z,20.4
2018-12-23T15:56:18.381Z,20.4
2018-12-23T15:57:08.623Z,20.4
2018-12-23T15:57:59.208Z,20.4
2018-12-23T15:59:03.118Z,20.4
2018-12-23T15:59:38.781Z,20.4
2018-12-23T16:00:28.738Z,20.4
2018-12-23T16:01:32.741Z,20.4
2018-12-23T16:02:08.428Z,20.4
2018-12-23T16:02:59.028Z,20.4
2018-12-23T16:03:49.073Z,20.4
2018-12-23T16:04:39.137Z,20.4
2018-12-23T16:05:29.225Z,20.3
2018-12-23T16:06:19.255Z,20.3
2018-12-23T16:07:09.305Z,20.3
2018-12-23T16:07:58.997Z,20.3
2018-12-23T16:08:49.412Z,20.3
2018-12-23T16:09:39.475Z,20.3
2018-12-23T16:10:29.290Z,20.3
2018-12-23T16:11:19.797Z,20.3
2018-12-23T16:12:09.687Z,20.3
2018-12-23T16:13:14.367Z,20.3
2018-12-23T16:13:50.040Z,20.3
2018-12-23T16:14:40.222Z,20.3
2018-12-23T16:15:30.104Z,20.2
2018-12-23T16:16:19.108Z,20.2
2018-12-23T16:17:09.274Z,20.2
2018-12-23T16:17:59.764Z,20.2
2018-12-23T16:18:49.542Z,20.2
2018-12-23T16:19:40.609Z,20.2
2018-12-23T16:20:29.657Z,20.1
2018-12-23T16:21:19.994Z,20.1
2018-12-23T16:22:10.271Z,20.2
2018-12-23T16:23:00.369Z,20.1
2018-12-23T16:23:50.429Z,20.1
2018-12-23T16:24:39.721Z,20.1
2018-12-23T16:25:29.976Z,20.1
2018-12-23T16:26:20.791Z,20.1
2018-12-23T16:27:11.169Z,20.1
2018-12-23T16:28:01.006Z,20.1
2018-12-23T16:28:50.619Z,20.1
2018-12-23T16:29:40.538Z,20.1
2018-12-23T16:30:30.391Z,20.1
2018-12-23T16:31:20.381Z,20.1
2018-12-23T16:32:10.150Z,20.1
2018-12-23T16:33:01.193Z,20.1
2018-12-23T16:33:50.908Z,20.1
2018-12-23T16:34:41.556Z,20.1
2018-12-23T16:35:31.218Z,20.1
2018-12-23T16:36:20.729Z,20.1
2018-12-23T16:37:11.390Z,20.1
2018-12-23T16:38:01.106Z,20.1
2018-12-23T16:38:51.665Z,20.1
2018-12-23T16:39:41.210Z,20.1
2018-12-23T16:40:31.549Z,20.1
2018-12-23T16:41:21.052Z,20
2018-12-23T16:42:11.490Z,20
2018-12-23T16:43:01.674Z,20
2018-12-23T16:43:51.497Z,20
2018-12-23T16:44:41.810Z,20
2018-12-23T16:45:31.607Z,20
2018-12-23T16:46:21.939Z,20
2018-12-23T16:47:12.002Z,20
2018-12-23T16:48:02.057Z,19.9
2018-12-23T16:48:52.128Z,20
2018-12-23T16:49:44.067Z,19.9
2018-12-23T16:50:32.240Z,19.9
2018-12-23T16:51:22.200Z,20
2018-12-23T16:52:12.032Z,20
2018-12-23T16:53:02.404Z,19.9
2018-12-23T16:53:52.172Z,19.9
2018-12-23T16:54:42.232Z,19.9
2018-12-23T16:55:34.470Z,19.9
2018-12-23T16:56:22.552Z,19.9
2018-12-23T16:57:12.409Z,19.9
2018-12-23T16:58:03.980Z,19.9
2018-12-23T16:59:42.279Z,19.9
2018-12-23T17:00:32.069Z,19.9
2018-12-23T17:01:22.954Z,19.9
2018-12-23T17:02:12.446Z,19.9
2018-12-23T17:03:02.806Z,19.9
2018-12-23T17:03:53.119Z,19.9
2018-12-23T17:04:42.632Z,19.9
2018-12-23T17:05:32.684Z,19.9
2018-12-23T17:06:23.546Z,19.9
2018-12-23T17:07:13.341Z,19.8
2018-12-23T17:08:03.401Z,19.9
2018-12-23T17:09:44.089Z,19.9
2018-12-23T17:10:48.363Z,19.9
2018-12-23T17:11:23.368Z,19.8